Terminal Aerodrome Forecast
Issued by NWS

Home | Current Version | Previous Version | Text Only | Print | Product List | Glossary Off
Versions: 1 2 3 4 5 6 7 8 9 10 11 12 13 14 15 16 17 18 19 20 21 22

000
FTUS43 KICT 221356 AAB
TAFRSL
TAF AMD
KRSL 221356Z 2214/2312 09007KT 1 1/2SM -FZDZ BR OVC003
      TEMPO 2214/2217 4SM BR OVC005
     FM221700 13007KT P6SM OVC008
     FM230300 VRB03KT 5SM BR OVC005=

USA.gov is the U.S. government's official web portal to all federal, state and local government web resources and services.